Terminal Aerodrome Forecast
Issued by NWS

Home | Current Version | Previous Version | Text Only | Print | Product List | Glossary Off
Versions: 1 2 3 4 5 6 7 8 9 10 11 12 13 14 15 16 17 18 19 20 21 22 23 24 25 26 27 28 29 30 31 32 33 34 35 36

000
FTUS43 KGRB 311300 AAB
TAFRHI
TAF AMD
KRHI 311350Z 3114/0112 29006KT P6SM SCT012
     FM311500 29006KT P6SM SCT020
     FM311700 30007KT P6SM SCT050 SCT080
     FM010100 VRB02KT P6SM SCT080
      TEMPO 0108/0112 1 1/2SM BR SCT005=

USA.gov is the U.S. government's official web portal to all federal, state and local government web resources and services.